Time;durP1;ratioP1;P1;durP2;ratioP2;P2;SDS_P1;SDS_P2;PMS_P1;PMS_P2;Temp;Humidity;BMP_temperature;BMP_pressure;BME280_temperature;BME280_humidity;BME280_pressure;Samples;Min_cycle;Max_cycle;Signal;HPM_P1;HPM_P2
2023/05/26 00:01:46;;;;;;;0.40;0.40;;;;;;;;;;4973856;28;20657;-92
2023/05/26 00:04:24;;;;;;;0.20;0.20;;;;;;;;;;4975153;28;20317;-92
2023/05/26 00:07:07;;;;;;;0.73;0.53;;;;;;;;;;4973597;28;20690;-92
2023/05/26 00:09:42;;;;;;;0.43;0.43;;;;;;;;;;4978240;28;20229;-91
2023/05/26 00:12:38;;;;;;;1.73;0.50;;;;;;;;;;4982292;28;20724;-93
2023/05/26 00:15:18;;;;;;;1.47;0.40;;;;;;;;;;4979813;28;20206;-94
2023/05/26 00:17:52;;;;;;;0.43;0.43;;;;;;;;;;4976644;28;20204;-91
2023/05/26 00:20:31;;;;;;;0.30;0.30;;;;;;;;;;4978152;28;20508;-92
2023/05/26 00:23:15;;;;;;;1.40;0.47;;;;;;;;;;4979233;28;20226;-93
2023/05/26 00:25:57;;;;;;;0.20;0.20;;;;;;;;;;4981018;28;20294;-94
2023/05/26 00:28:49;;;;;;;;;;;;;;;;;;;;;
2023/05/26 00:31:31;;;;;;;0.57;0.47;;;;;;;;;;4984612;28;20274;-92
2023/05/26 00:39:59;;;;;;;3.70;0.73;;;;;;;;;;4994005;28;20210;-93
2023/05/26 00:42:47;;;;;;;0.93;0.57;;;;;;;;;;4991292;28;20187;-91
2023/05/26 00:45:20;;;;;;;0.30;0.30;;;;;;;;;;4988213;28;20198;-92
2023/05/26 00:48:05;;;;;;;0.43;0.43;;;;;;;;;;4983069;28;20784;-94
2023/05/26 00:50:58;;;;;;;0.20;0.20;;;;;;;;;;4986449;28;20221;-94
2023/05/26 00:56:23;;;;;;;0.50;0.50;;;;;;;;;;4997688;28;20220;-91
2023/05/26 01:01:53;;;;;;;1.80;0.77;;;;;;;;;;4988551;28;20213;-91
2023/05/26 01:04:35;;;;;;;0.43;0.43;;;;;;;;;;4982269;28;20233;-94
2023/05/26 01:07:11;;;;;;;0.87;0.57;;;;;;;;;;4973157;28;20199;-93
2023/05/26 01:09:40;;;;;;;0.47;0.30;;;;;;;;;;4981390;28;20195;-93
2023/05/26 01:12:19;;;;;;;0.77;0.67;;;;;;;;;;4981205;28;20238;-94
2023/05/26 01:14:54;;;;;;;0.40;0.40;;;;;;;;;;4980283;28;20222;-92
2023/05/26 01:17:28;;;;;;;1.03;1.00;;;;;;;;;;4978962;28;20210;-94
2023/05/26 01:20:29;;;;;;;1.13;0.27;;;;;;;;;;4978882;28;20211;-93
2023/05/26 01:23:15;;;;;;;1.00;0.47;;;;;;;;;;4979044;28;20212;-92
2023/05/26 01:25:51;;;;;;;1.67;0.77;;;;;;;;;;4972628;28;20322;-92
2023/05/26 01:28:25;;;;;;;1.00;0.70;;;;;;;;;;4981302;28;20286;-94
2023/05/26 01:30:53;;;;;;;1.23;0.60;;;;;;;;;;4978963;28;20206;-93
2023/05/26 01:33:24;;;;;;;1.30;0.67;;;;;;;;;;4978697;28;20210;-92
2023/05/26 01:35:53;;;;;;;0.73;0.67;;;;;;;;;;4979191;28;20242;-92
2023/05/26 01:38:20;;;;;;;1.87;0.80;;;;;;;;;;4978469;28;20208;-93
2023/05/26 01:41:11;;;;;;;0.97;0.90;;;;;;;;;;4977618;28;20573;-93
2023/05/26 01:43:49;;;;;;;0.30;0.30;;;;;;;;;;4979521;28;20244;-93
2023/05/26 01:46:23;;;;;;;0.67;0.67;;;;;;;;;;4976887;28;20201;-92
2023/05/26 01:48:52;;;;;;;2.93;0.50;;;;;;;;;;4978374;28;20236;-93
2023/05/26 01:51:25;;;;;;;1.10;0.77;;;;;;;;;;4961280;28;20205;-94
2023/05/26 01:54:01;;;;;;;0.53;0.53;;;;;;;;;;4977235;28;20337;-92
2023/05/26 01:56:33;;;;;;;1.17;1.10;;;;;;;;;;4978306;28;20217;-94
2023/05/26 01:59:09;;;;;;;0.80;0.80;;;;;;;;;;4970459;28;20198;-93
2023/05/26 02:01:43;;;;;;;0.50;0.50;;;;;;;;;;4978180;28;20217;-93
2023/05/26 02:04:13;;;;;;;0.50;0.50;;;;;;;;;;4978043;28;20614;-93
2023/05/26 02:07:07;;;;;;;0.67;0.67;;;;;;;;;;4976734;28;20209;-93
2023/05/26 02:09:41;;;;;;;0.40;0.40;;;;;;;;;;4976914;28;20206;-92
2023/05/26 02:12:10;;;;;;;0.73;0.70;;;;;;;;;;4979333;28;20734;-92
2023/05/26 02:14:46;;;;;;;0.40;0.40;;;;;;;;;;4979686;28;20277;-92
2023/05/26 02:17:17;;;;;;;0.63;0.63;;;;;;;;;;4978151;28;20207;-91
2023/05/26 02:20:03;;;;;;;1.23;1.13;;;;;;;;;;4978063;28;20219;-92
2023/05/26 02:25:21;;;;;;;0.40;0.40;;;;;;;;;;4976438;28;20318;-92
2023/05/26 02:27:55;;;;;;;20.83;9.37;;;;;;;;;;4976105;28;20280;-94
2023/05/26 02:30:37;;;;;;;1.90;1.60;;;;;;;;;;4976630;28;20713;-92
2023/05/26 02:33:06;;;;;;;0.47;0.47;;;;;;;;;;4980973;28;20227;-90
2023/05/26 02:35:34;;;;;;;1.47;0.70;;;;;;;;;;4981474;28;20209;-93
2023/05/26 02:38:04;;;;;;;1.00;0.67;;;;;;;;;;4985292;28;20218;-92
2023/05/26 02:40:32;;;;;;;1.90;0.90;;;;;;;;;;4989812;28;20186;-93
2023/05/26 02:43:02;;;;;;;1.80;0.77;;;;;;;;;;4977985;28;20280;-91
2023/05/26 02:45:42;;;;;;;0.97;0.77;;;;;;;;;;4977778;28;20230;-92
2023/05/26 02:48:19;;;;;;;0.77;0.77;;;;;;;;;;4979113;28;20211;-94
2023/05/26 02:50:52;;;;;;;2.90;1.20;;;;;;;;;;4979173;28;20257;-93
2023/05/26 02:53:20;;;;;;;0.90;0.90;;;;;;;;;;4978516;28;20235;-93
2023/05/26 02:56:04;;;;;;;0.53;0.53;;;;;;;;;;4980482;28;20212;-94
2023/05/26 02:58:37;;;;;;;1.83;0.80;;;;;;;;;;4985511;28;20264;-94
2023/05/26 03:04:03;;;;;;;1.23;1.23;;;;;;;;;;4977129;28;20246;-93
2023/05/26 03:06:32;;;;;;;0.67;0.67;;;;;;;;;;4976930;28;20201;-94
2023/05/26 03:09:05;;;;;;;1.40;1.30;;;;;;;;;;4976515;28;20195;-93
2023/05/26 03:11:34;;;;;;;1.17;1.17;;;;;;;;;;4976390;28;20227;-93
2023/05/26 03:14:09;;;;;;;0.97;0.97;;;;;;;;;;4976605;28;20634;-92
2023/05/26 03:16:58;;;;;;;1.43;1.10;;;;;;;;;;4975310;28;20380;-91
2023/05/26 03:19:28;;;;;;;0.70;0.70;;;;;;;;;;4975795;28;20213;-92
2023/05/26 03:22:01;;;;;;;0.80;0.80;;;;;;;;;;4975739;28;20206;-92
2023/05/26 03:24:30;;;;;;;0.80;0.80;;;;;;;;;;4976509;28;20649;-92
2023/05/26 03:27:06;;;;;;;1.07;1.07;;;;;;;;;;4976230;28;20231;-93
2023/05/26 03:29:38;;;;;;;1.40;1.30;;;;;;;;;;4976321;28;20228;-92
2023/05/26 03:32:10;;;;;;;1.13;1.00;;;;;;;;;;4969106;28;20288;-93
2023/05/26 03:34:39;;;;;;;0.70;0.70;;;;;;;;;;4975248;28;20202;-93
2023/05/26 03:40:02;;;;;;;1.10;1.10;;;;;;;;;;4975680;28;20208;-92
2023/05/26 03:42:43;;;;;;;;;;;;;;;;;;;;;
2023/05/26 03:45:25;;;;;;;1.03;1.00;;;;;;;;;;4977079;28;20240;-93
2023/05/26 03:47:59;;;;;;;2.27;1.17;;;;;;;;;;4975466;28;20423;-93
2023/05/26 03:50:32;;;;;;;1.53;1.43;;;;;;;;;;4976552;28;20336;-92
2023/05/26 03:53:04;;;;;;;1.23;1.23;;;;;;;;;;4974044;28;20203;-92
2023/05/26 03:55:36;;;;;;;1.37;1.07;;;;;;;;;;4975305;28;20285;-93
2023/05/26 03:58:07;;;;;;;1.70;1.60;;;;;;;;;;4987993;28;20681;-93
2023/05/26 04:00:38;;;;;;;1.37;1.33;;;;;;;;;;4994840;28;20201;-92
2023/05/26 04:03:15;;;;;;;4.80;1.40;;;;;;;;;;4995665;28;20201;-92
2023/05/26 04:05:46;;;;;;;1.13;1.13;;;;;;;;;;4993244;28;20229;-90
2023/05/26 04:08:18;;;;;;;1.30;1.30;;;;;;;;;;4995498;28;20201;-93
2023/05/26 04:11:08;;;;;;;1.73;0.97;;;;;;;;;;4995973;28;20649;-93
2023/05/26 04:16:44;;;;;;;1.70;1.60;;;;;;;;;;4990018;28;20622;-92
2023/05/26 04:19:17;;;;;;;1.33;1.33;;;;;;;;;;4994840;28;20292;-93
2023/05/26 04:21:53;;;;;;;1.30;1.30;;;;;;;;;;4994819;28;20202;-93
2023/05/26 04:24:38;;;;;;;2.80;1.45;;;;;;;;;;4993640;28;20240;-91
2023/05/26 04:27:09;;;;;;;1.55;1.45;;;;;;;;;;4992116;28;20220;-93
2023/05/26 04:29:49;;;;;;;1.92;1.50;;;;;;;;;;4991845;28;20233;-92
2023/05/26 04:32:22;;;;;;;1.25;1.25;;;;;;;;;;4992853;28;20221;-91
2023/05/26 04:34:59;;;;;;;1.30;1.30;;;;;;;;;;4992391;28;20205;-90
2023/05/26 04:37:33;;;;;;;1.30;1.25;;;;;;;;;;4993447;28;20615;-92
2023/05/26 04:40:09;;;;;;;2.47;1.42;;;;;;;;;;4993463;28;20232;-91
2023/05/26 04:42:43;;;;;;;1.05;1.05;;;;;;;;;;4996130;28;20205;-91
2023/05/26 04:45:18;;;;;;;1.50;1.30;;;;;;;;;;4994733;28;20624;-93
2023/05/26 04:47:46;;;;;;;1.88;1.33;;;;;;;;;;4994892;28;20228;-92
2023/05/26 04:50:24;;;;;;;1.60;1.33;;;;;;;;;;4994601;28;20220;-92
2023/05/26 04:52:55;;;;;;;1.40;1.30;;;;;;;;;;4978555;28;20201;-93
2023/05/26 04:55:28;;;;;;;2.10;1.17;;;;;;;;;;4996631;28;20228;-91
2023/05/26 04:57:56;;;;;;;2.00;1.90;;;;;;;;;;5000549;28;20642;-92
2023/05/26 05:03:34;;;;;;;;;;;;;;;;;;;;;
2023/05/26 05:09:44;;;;;;;2.33;1.90;;;;;;;;;;5003767;28;20207;-91
2023/05/26 05:12:33;;;;;;;1.65;1.55;;;;;;;;;;5010596;28;20229;-91
2023/05/26 05:15:29;;;;;;;1.77;1.70;;;;;;;;;;4999191;28;20205;-93
2023/05/26 05:18:01;;;;;;;1.70;1.70;;;;;;;;;;5005034;28;20409;-92
2023/05/26 05:20:31;;;;;;;2.05;1.75;;;;;;;;;;5010267;28;20205;-90
2023/05/26 05:23:04;;;;;;;1.70;1.65;;;;;;;;;;5008059;28;20197;-90
2023/05/26 05:25:38;;;;;;;1.95;1.77;;;;;;;;;;5012554;28;20241;-91
2023/05/26 05:28:09;;;;;;;1.35;1.35;;;;;;;;;;4990778;28;20197;-93
2023/05/26 05:30:44;;;;;;;1.27;1.25;;;;;;;;;;4994696;28;20202;-93
2023/05/26 05:33:12;;;;;;;1.08;1.05;;;;;;;;;;4994778;28;20216;-91
2023/05/26 05:35:41;;;;;;;1.00;0.95;;;;;;;;;;4993951;28;20209;-93
2023/05/26 05:38:10;;;;;;;1.27;1.27;;;;;;;;;;4993380;28;20252;-90
2023/05/26 05:40:47;;;;;;;1.10;1.10;;;;;;;;;;4999906;28;20268;-90
2023/05/26 05:43:25;;;;;;;1.20;1.20;;;;;;;;;;5006304;28;20268;-90
2023/05/26 05:45:57;;;;;;;2.65;1.50;;;;;;;;;;5008949;28;20217;-92
2023/05/26 05:48:28;;;;;;;1.65;1.55;;;;;;;;;;5004186;28;20201;-93
2023/05/26 05:51:00;;;;;;;1.20;1.20;;;;;;;;;;4997507;28;20649;-91
2023/05/26 05:53:32;;;;;;;1.00;1.00;;;;;;;;;;4996795;28;20289;-92
2023/05/26 05:56:01;;;;;;;1.23;1.23;;;;;;;;;;4998839;28;20205;-92
2023/05/26 05:58:39;;;;;;;1.50;1.40;;;;;;;;;;4994786;28;20247;-93
2023/05/26 06:01:26;;;;;;;1.33;1.20;;;;;;;;;;4998410;28;20264;-90
2023/05/26 06:03:57;;;;;;;1.50;1.50;;;;;;;;;;5001918;28;20204;-93
2023/05/26 06:06:24;;;;;;;1.33;1.25;;;;;;;;;;4995870;28;20237;-92
2023/05/26 06:08:54;;;;;;;1.52;1.42;;;;;;;;;;4996423;28;20231;-92
2023/05/26 06:11:31;;;;;;;1.20;1.20;;;;;;;;;;4997620;28;20244;-92
2023/05/26 06:14:07;;;;;;;1.75;1.65;;;;;;;;;;4995122;28;20655;-92
2023/05/26 06:16:43;;;;;;;1.40;1.40;;;;;;;;;;4997544;28;20218;-92
2023/05/26 06:19:33;;;;;;;1.77;1.67;;;;;;;;;;4989372;28;20204;-91
2023/05/26 06:22:11;;;;;;;1.88;1.80;;;;;;;;;;4956848;29;20202;-92
2023/05/26 06:24:43;;;;;;;2.78;2.03;;;;;;;;;;4956543;29;20237;-91
2023/05/26 06:27:14;;;;;;;1.70;1.70;;;;;;;;;;4957497;29;20258;-93
2023/05/26 06:33:14;;;;;;;2.45;2.10;;;;;;;;;;4912793;29;20210;-92
2023/05/26 06:35:50;;;;;;;2.00;1.95;;;;;;;;;;4960915;29;20214;-93
2023/05/26 06:38:27;;;;;;;1.95;1.85;;;;;;;;;;4959485;29;20233;-92
2023/05/26 06:44:03;;;;;;;1.65;1.55;;;;;;;;;;4956834;29;20199;-92
2023/05/26 06:46:55;;;;;;;2.15;2.00;;;;;;;;;;4959938;29;20234;-94
2023/05/26 06:49:28;;;;;;;2.05;1.95;;;;;;;;;;4960182;29;20195;-94
2023/05/26 06:55:29;;;;;;;2.72;1.90;;;;;;;;;;4944600;29;20206;-93
2023/05/26 06:58:10;;;;;;;1.83;1.73;;;;;;;;;;4964753;29;20264;-93
2023/05/26 07:01:00;;;;;;;2.08;1.98;;;;;;;;;;4963390;29;20217;-92
2023/05/26 07:06:30;;;;;;;3.30;2.20;;;;;;;;;;4947155;29;20237;-92
2023/05/26 07:09:06;;;;;;;2.17;2.08;;;;;;;;;;4961438;29;20221;-93
2023/05/26 07:14:27;;;;;;;2.75;2.38;;;;;;;;;;4977393;28;20206;-92
2023/05/26 07:17:11;;;;;;;1.80;1.70;;;;;;;;;;4978963;28;20664;-92
2023/05/26 07:19:48;;;;;;;2.72;1.80;;;;;;;;;;4943131;28;20236;-91
2023/05/26 07:22:24;;;;;;;2.17;2.00;;;;;;;;;;4981428;28;20213;-90
2023/05/26 07:25:07;;;;;;;2.35;2.25;;;;;;;;;;4995829;28;20217;-93
2023/05/26 07:37:19;;;;;;;2.47;2.30;;;;;;;;;;4961485;28;20201;-94
2023/05/26 07:39:58;;;;;;;2.20;2.10;;;;;;;;;;4974625;28;20236;-93
2023/05/26 07:42:34;;;;;;;2.20;2.10;;;;;;;;;;4976260;28;20329;-92
2023/05/26 07:45:07;;;;;;;2.88;2.67;;;;;;;;;;4972634;28;20256;-93
2023/05/26 08:01:57;;;;;;;2.20;2.10;;;;;;;;;;4971523;28;20234;-92
2023/05/26 08:07:45;;;;;;;2.03;1.92;;;;;;;;;;4971501;28;20292;-93
2023/05/26 08:10:27;;;;;;;2.42;2.17;;;;;;;;;;4956594;28;20222;-92
2023/05/26 08:13:14;;;;;;;1.67;1.60;;;;;;;;;;4955907;28;20754;-92
2023/05/26 08:16:17;;;;;;;2.65;1.90;;;;;;;;;;4955193;28;20229;-93
2023/05/26 08:18:57;;;;;;;1.88;1.85;;;;;;;;;;4938213;28;20237;-93
2023/05/26 08:21:53;;;;;;;2.03;1.92;;;;;;;;;;4955592;28;20234;-94
2023/05/26 08:24:30;;;;;;;3.00;2.50;;;;;;;;;;4957140;28;20223;-94
2023/05/26 08:27:02;;;;;;;1.90;1.80;;;;;;;;;;4955779;28;20285;-94
2023/05/26 08:29:48;;;;;;;2.65;2.45;;;;;;;;;;4954419;28;20225;-96
2023/05/26 08:44:41;;;;;;;1.67;1.58;;;;;;;;;;4954456;28;20234;-94
2023/05/26 08:47:25;;;;;;;1.77;1.67;;;;;;;;;;4959681;28;20242;-95
2023/05/26 08:56:48;;;;;;;1.83;1.73;;;;;;;;;;4940126;28;20234;-92
2023/05/26 08:59:37;;;;;;;1.98;1.88;;;;;;;;;;4928952;28;20235;-91
2023/05/26 09:04:59;;;;;;;2.53;1.50;;;;;;;;;;4952623;29;20274;-92
2023/05/26 09:10:27;;;;;;;1.30;1.25;;;;;;;;;;4903929;29;20235;-91
2023/05/26 09:13:13;;;;;;;1.77;1.40;;;;;;;;;;4918534;29;20228;-93
2023/05/26 09:16:02;;;;;;;1.50;1.50;;;;;;;;;;4919590;29;20228;-92
2023/05/26 09:18:45;;;;;;;2.20;2.00;;;;;;;;;;4921055;29;20295;-92
2023/05/26 09:23:56;;;;;;;1.55;1.55;;;;;;;;;;4960292;29;20227;-92
2023/05/26 09:26:48;;;;;;;;;;;;;;;;;;;;;
2023/05/26 09:29:18;;;;;;;1.52;1.42;;;;;;;;;;4966915;29;20242;-92
2023/05/26 09:31:49;;;;;;;1.67;1.45;;;;;;;;;;4962610;29;20231;-91
2023/05/26 09:37:58;;;;;;;2.03;1.92;;;;;;;;;;4970359;29;20230;-91
2023/05/26 09:40:36;;;;;;;1.75;1.65;;;;;;;;;;4932199;29;20387;-90
2023/05/26 09:43:13;;;;;;;1.60;1.58;;;;;;;;;;4949813;29;20237;-91
2023/05/26 09:52:46;;;;;;;;;;;;;;;;;;;;;
2023/05/26 09:58:42;;;;;;;1.85;1.75;;;;;;;;;;5047340;28;20231;-92
2023/05/26 10:01:20;;;;;;;1.83;1.67;;;;;;;;;;5046349;28;20284;-93
2023/05/26 10:04:24;;;;;;;2.65;2.00;;;;;;;;;;5043887;28;20744;-94
2023/05/26 10:07:08;;;;;;;3.97;1.80;;;;;;;;;;5041849;28;20333;-94
2023/05/26 10:15:59;;;;;;;2.30;2.10;;;;;;;;;;4819371;27;8931386;-92
2023/05/26 10:18:39;;;;;;;2.40;2.20;;;;;;;;;;5110945;28;20325;-92
2023/05/26 10:59:04;;;;;;;1.33;1.23;;;;;;;;;;4949233;28;20347;-92
2023/05/26 11:01:50;;;;;;;1.50;1.38;;;;;;;;;;4964651;28;20320;-92
2023/05/26 11:13:31;;;;;;;1.58;1.42;;;;;;;;;;5057952;28;20227;-93
2023/05/26 11:19:04;;;;;;;1.48;1.40;;;;;;;;;;5068091;28;20309;-93
2023/05/26 11:21:44;;;;;;;2.17;1.33;;;;;;;;;;5067510;28;20242;-92
2023/05/26 11:24:16;;;;;;;1.20;1.17;;;;;;;;;;5067551;28;20280;-93
2023/05/26 11:26:55;;;;;;;1.33;1.33;;;;;;;;;;5055369;28;20248;-93
2023/05/26 11:32:22;;;;;;;1.60;1.50;;;;;;;;;;5055012;28;20219;-93
2023/05/26 11:35:38;;;;;;;;;;;;;;;;;;;;;
2023/05/26 11:38:47;;;;;;;1.65;1.48;;;;;;;;;;5056789;28;20230;-92
2023/05/26 11:41:38;;;;;;;;;;;;;;;;;;;;;
2023/05/26 11:47:11;;;;;;;1.15;1.15;;;;;;;;;;5048318;28;20228;-93
2023/05/26 11:49:57;;;;;;;1.30;1.13;;;;;;;;;;5058153;28;20224;-94
2023/05/26 11:58:44;;;;;;;1.10;1.10;;;;;;;;;;5055921;28;20234;-93
2023/05/26 12:01:31;;;;;;;1.13;1.10;;;;;;;;;;5052875;28;20230;-93
2023/05/26 12:04:08;;;;;;;0.90;0.90;;;;;;;;;;5056530;28;20230;-94
2023/05/26 12:12:21;;;;;;;1.00;1.00;;;;;;;;;;5072620;28;20458;-92
2023/05/26 12:15:09;;;;;;;1.13;1.13;;;;;;;;;;5078402;28;20293;-91
2023/05/26 12:17:46;;;;;;;1.20;1.20;;;;;;;;;;5083332;28;20226;-92
2023/05/26 12:21:02;;;;;;;1.00;1.00;;;;;;;;;;5092638;28;20215;-92
2023/05/26 12:23:37;;;;;;;1.20;0.95;;;;;;;;;;4987009;28;20269;-93
2023/05/26 12:29:34;;;;;;;1.20;1.20;;;;;;;;;;4992834;28;20257;-92
2023/05/26 12:32:06;;;;;;;1.10;1.10;;;;;;;;;;5055254;28;20249;-91
2023/05/26 12:40:41;;;;;;;1.52;0.93;;;;;;;;;;5049878;28;20214;-93
2023/05/26 12:43:11;;;;;;;2.08;1.23;;;;;;;;;;5053988;28;20249;-92
2023/05/26 12:45:43;;;;;;;1.25;1.25;;;;;;;;;;5054676;28;20227;-93
2023/05/26 12:48:16;;;;;;;1.45;1.38;;;;;;;;;;5063153;28;20210;-92
2023/05/26 12:50:48;;;;;;;1.13;1.08;;;;;;;;;;5073483;28;20313;-92
2023/05/26 12:59:15;;;;;;;1.27;1.17;;;;;;;;;;5051855;28;20276;-90
2023/05/26 13:01:53;;;;;;;1.45;1.45;;;;;;;;;;5072542;28;20217;-92
2023/05/26 13:07:04;;;;;;;1.75;1.23;;;;;;;;;;5066600;28;20235;-93
2023/05/26 13:09:43;;;;;;;1.98;1.50;;;;;;;;;;5066756;28;20614;-91
2023/05/26 13:12:41;;;;;;;1.20;1.20;;;;;;;;;;5071698;28;20249;-93
2023/05/26 13:15:42;;;;;;;1.55;1.45;;;;;;;;;;5075576;28;20369;-95
2023/05/26 13:24:18;;;;;;;1.55;1.48;;;;;;;;;;5129214;27;20201;-89
2023/05/26 13:27:23;;;;;;;4.57;1.83;;;;;;;;;;5130189;28;20197;-91
2023/05/26 13:33:11;;;;;;;1.65;1.60;;;;;;;;;;5055156;27;20566;-90
2023/05/26 13:47:38;;;;;;;1.60;1.60;;;;;;;;;;5134295;27;20711;-92
2023/05/26 13:50:25;;;;;;;1.38;1.27;;;;;;;;;;5137008;27;20193;-91
2023/05/26 14:01:48;;;;;;;1.85;1.75;;;;;;;;;;5091466;27;20201;-92
2023/05/26 14:04:45;;;;;;;1.75;1.65;;;;;;;;;;5141634;27;20216;-90
2023/05/26 14:13:20;;;;;;;1.85;1.75;;;;;;;;;;5118852;28;20229;-90
2023/05/26 14:15:58;;;;;;;6.43;1.38;;;;;;;;;;5122840;28;20204;-90
2023/05/26 14:18:47;;;;;;;1.80;1.70;;;;;;;;;;5122188;28;20284;-93
2023/05/26 14:21:31;;;;;;;1.77;1.67;;;;;;;;;;5123396;28;20217;-92
2023/05/26 14:33:08;;;;;;;;;;;;;;;;;;;;;
2023/05/26 14:36:08;;;;;;;;;;;;;;;;;;;;;
2023/05/26 14:42:03;;;;;;;1.50;1.40;;;;;;;;;;5100844;28;20206;-92
2023/05/26 14:48:07;;;;;;;1.42;1.42;;;;;;;;;;5102270;28;20198;-93
2023/05/26 14:50:46;;;;;;;1.95;1.85;;;;;;;;;;5110783;28;20508;-91
2023/05/26 14:53:43;;;;;;;1.50;1.50;;;;;;;;;;5111523;28;20210;-91
2023/05/26 14:59:03;;;;;;;1.10;1.10;;;;;;;;;;5100527;28;20198;-91
2023/05/26 15:01:43;;;;;;;1.50;1.40;;;;;;;;;;5110834;28;20199;-92
2023/05/26 15:04:23;;;;;;;1.38;1.27;;;;;;;;;;5107153;28;20186;-92
2023/05/26 15:07:00;;;;;;;1.27;1.17;;;;;;;;;;5105269;28;20643;-94
2023/05/26 15:09:30;;;;;;;1.40;1.38;;;;;;;;;;5105467;28;20202;-93
2023/05/26 15:12:28;;;;;;;1.20;1.20;;;;;;;;;;5103268;28;20397;-93
2023/05/26 15:18:30;;;;;;;1.33;1.33;;;;;;;;;;5103384;28;20232;-92
2023/05/26 15:24:54;;;;;;;1.08;1.08;;;;;;;;;;5087324;22;20250;-95
2023/05/26 15:27:27;;;;;;;7.30;1.15;;;;;;;;;;5025236;28;20265;-93
2023/05/26 15:36:46;;;;;;;;;;;;;;;;;;;;;
2023/05/26 16:10:09;;;;;;;2.15;0.80;;;;;;;;;;4842413;29;20216;-94
2023/05/26 16:12:49;;;;;;;0.98;0.98;;;;;;;;;;4906440;29;20749;-93
2023/05/26 16:15:18;;;;;;;0.63;0.60;;;;;;;;;;4986255;28;20224;-92
2023/05/26 16:17:57;;;;;;;;;;;;;;;;;;;;;
2023/05/26 16:20:31;;;;;;;0.52;0.52;;;;;;;;;;5009835;28;20239;-91
2023/05/26 16:23:17;;;;;;;0.63;0.63;;;;;;;;;;5009909;28;20694;-92
2023/05/26 16:25:52;;;;;;;0.60;0.60;;;;;;;;;;5010782;28;20596;-92
2023/05/26 16:31:26;;;;;;;2.20;1.08;;;;;;;;;;5011903;28;20202;-94
2023/05/26 16:34:00;;;;;;;0.65;0.65;;;;;;;;;;5012069;28;20192;-91
2023/05/26 16:39:59;;;;;;;;;;;;;;;;;;;;;
2023/05/26 16:42:47;;;;;;;1.52;0.68;;;;;;;;;;5019487;28;20906;-94
2023/05/26 16:45:32;;;;;;;0.80;0.80;;;;;;;;;;5008890;28;20305;-93
2023/05/26 16:48:16;;;;;;;0.90;0.90;;;;;;;;;;5013460;28;20200;-93
2023/05/26 16:59:54;;;;;;;0.60;0.60;;;;;;;;;;4995249;28;20204;-93
2023/05/26 17:02:35;;;;;;;0.85;0.85;;;;;;;;;;4994645;28;20203;-93
2023/05/26 17:05:34;;;;;;;0.85;0.73;;;;;;;;;;4996338;28;20205;-95
2023/05/26 17:17:01;;;;;;;0.60;0.60;;;;;;;;;;4983859;28;20208;-92
2023/05/26 17:25:19;;;;;;;0.65;0.65;;;;;;;;;;5012164;28;20211;-90
2023/05/26 17:27:50;;;;;;;1.48;0.90;;;;;;;;;;5011710;28;20284;-92
2023/05/26 17:30:52;;;;;;;;;;;;;;;;;;;;;
2023/05/26 17:33:34;;;;;;;0.70;0.70;;;;;;;;;;5014786;28;20205;-93
2023/05/26 17:36:14;;;;;;;0.82;0.80;;;;;;;;;;5015558;28;20307;-93
2023/05/26 17:38:45;;;;;;;1.98;1.10;;;;;;;;;;5014560;28;20608;-91
2023/05/26 17:44:10;;;;;;;1.20;1.10;;;;;;;;;;5013960;28;20236;-93
2023/05/26 18:01:55;;;;;;;0.80;0.80;;;;;;;;;;5022916;28;20225;-91
2023/05/26 18:07:28;;;;;;;1.17;1.17;;;;;;;;;;5040027;28;20200;-92
2023/05/26 18:13:19;;;;;;;1.30;1.30;;;;;;;;;;5028913;28;20666;-92
2023/05/26 18:16:14;;;;;;;1.35;1.30;;;;;;;;;;5036293;28;20212;-92
2023/05/26 18:24:34;;;;;;;1.60;1.50;;;;;;;;;;5026462;28;20631;-93
2023/05/26 18:27:09;;;;;;;1.20;1.10;;;;;;;;;;5009357;28;20430;-93
2023/05/26 18:29:47;;;;;;;1.75;1.08;;;;;;;;;;5015385;28;20189;-92
2023/05/26 18:32:35;;;;;;;1.73;1.63;;;;;;;;;;5019808;28;20740;-94
2023/05/26 18:51:09;;;;;;;1.40;1.30;;;;;;;;;;5017152;28;20312;-93
2023/05/26 21:09:03;;;;;;;3.22;2.75;;;;;;;;;;6029990;23;20647;-95
2023/05/26 21:18:10;;;;;;;2.80;2.60;;;;;;;;;;6162142;23;20274;-94
2023/05/26 21:20:52;;;;;;;2.33;2.22;;;;;;;;;;6108814;23;20286;-95
2023/05/26 21:29:57;;;;;;;2.10;1.90;;;;;;;;;;6109957;23;20177;-95
2023/05/26 21:35:47;;;;;;;;;;;;;;;;;;;;;
2023/05/26 21:41:52;;;;;;;2.37;2.20;;;;;;;;;;6096730;23;20175;-96
2023/05/26 21:44:53;;;;;;;2.10;1.92;;;;;;;;;;6132812;23;20175;-92
2023/05/26 21:50:57;;;;;;;2.85;2.05;;;;;;;;;;6166665;23;20677;-93
2023/05/26 22:33:35;;;;;;;1.60;1.50;;;;;;;;;;6014669;23;20671;-94
2023/05/26 22:36:10;;;;;;;1.53;1.53;;;;;;;;;;6025222;23;20178;-94
2023/05/26 22:41:31;;;;;;;3.27;1.80;;;;;;;;;;6171136;23;20199;-95
2023/05/26 22:44:14;;;;;;;2.07;1.90;;;;;;;;;;6191840;23;20221;-94
2023/05/26 22:46:46;;;;;;;2.87;2.00;;;;;;;;;;6193384;23;20179;-95
2023/05/26 22:49:20;;;;;;;1.67;1.57;;;;;;;;;;6189663;23;20168;-95
2023/05/26 22:51:54;;;;;;;2.23;1.63;;;;;;;;;;6223845;23;20174;-95
2023/05/26 22:54:37;;;;;;;2.10;1.47;;;;;;;;;;6222345;23;20219;-94
2023/05/26 22:57:25;;;;;;;1.27;1.20;;;;;;;;;;6216935;23;20172;-95
2023/05/26 23:00:09;;;;;;;2.07;1.97;;;;;;;;;;6216666;23;20670;-96
2023/05/26 23:03:06;;;;;;;2.07;2.00;;;;;;;;;;6217285;23;20171;-95
2023/05/26 23:08:43;;;;;;;;;;;;;;;;;;;;;
2023/05/26 23:11:29;;;;;;;1.70;1.60;;;;;;;;;;6216677;23;20188;-94
2023/05/26 23:14:21;;;;;;;1.73;1.63;;;;;;;;;;6217595;23;20226;-94
2023/05/26 23:16:58;;;;;;;2.60;1.83;;;;;;;;;;6215830;23;20172;-95
2023/05/26 23:19:32;;;;;;;1.87;1.73;;;;;;;;;;6217250;23;20218;-95
2023/05/26 23:22:16;;;;;;;2.17;1.97;;;;;;;;;;6217493;23;20163;-94
2023/05/26 23:24:48;;;;;;;2.27;2.07;;;;;;;;;;6216620;23;20727;-93
2023/05/26 23:27:36;;;;;;;2.90;2.20;;;;;;;;;;6215816;23;20167;-94
2023/05/26 23:30:26;;;;;;;1.80;1.70;;;;;;;;;;6217256;23;20198;-92
2023/05/26 23:33:07;;;;;;;1.97;1.80;;;;;;;;;;6216101;23;20171;-95
2023/05/26 23:39:08;;;;;;;1.60;1.50;;;;;;;;;;6214948;23;20206;-94
2023/05/26 23:41:38;;;;;;;2.17;2.07;;;;;;;;;;6217085;23;20168;-94
2023/05/26 23:44:14;;;;;;;2.90;1.60;;;;;;;;;;6216840;23;20261;-93
2023/05/26 23:46:56;;;;;;;1.63;1.53;;;;;;;;;;6216313;23;20187;-95
2023/05/26 23:49:39;;;;;;;1.57;1.47;;;;;;;;;;6216093;23;20719;-94
2023/05/26 23:52:12;;;;;;;2.37;2.00;;;;;;;;;;6215822;23;20581;-93
2023/05/26 23:54:54;;;;;;;2.03;1.93;;;;;;;;;;6216518;23;20202;-93
2023/05/26 23:57:29;;;;;;;4.17;2.17;;;;;;;;;;6215837;23;20170;-95
